Karteria — 9HUU9 — position and weather

sailwx.info

Track history (hours):
 
Tides and Currents Weather Stations Pressure Air Temp Water Temp Dewpoint Dewpoint Depression Visibility Wind Speed Wind Dir Waves Ship Positions

Karteria

Last reported at 2017-Nov-18 13:30 UTC. Time now 2017-Nov-18 15:43 UTC.
Position N 35°59' W 005°32'.

Length 225 m; draft 11.8 m.

Type: Ship. MMSI: 249562000.

Date/timePositionNaut miles runAvg speedWind from/ knotsBaromVisibWave heightAir tempDewpointWater temp
2017-Nov-18 13:30N 35°59' W 005°32'912.9
2017-Nov-18 12:48N 36°01' W 005°22'412.8
2017-Nov-18 12:30N 36°02' W 005°17'  
2017-Nov-15 12:45N 36°39' E 013°48'412.9
2017-Nov-15 12:29N 36°38' E 013°52'612.8
2017-Nov-15 12:00N 36°36' E 013°59'712.9
2017-Nov-15 11:30N 36°34' E 014°07'812.7
2017-Nov-15 10:54N 36°31' E 014°16'512.5
2017-Nov-15 10:30N 36°30' E 014°22'612.4
2017-Nov-15 10:00N 36°27' E 014°29'612.2
2017-Nov-15 09:29N 36°26' E 014°37'  
2017-Nov-09 12:14N 45°06' E 036°37'  
Track history (hours):
 
Tides and Currents Weather Stations Pressure Air Temp Water Temp Dewpoint Dewpoint Depression Visibility Wind Speed Wind Dir Waves Ship Positions

Karteria

Last reported at 2017-Nov-18 13:30 UTC. Time now 2017-Nov-18 15:43 UTC.
Position N 35°59' W 005°32'.

Length 225 m; draft 11.8 m.

Type: Ship. MMSI: 249562000.

Date/timePositionNaut miles runAvg speedWind from/ knotsBaromVisibWave heightAir tempDewpointWater temp
2017-Nov-18 13:30N 35°59' W 005°32'912.9
2017-Nov-18 12:48N 36°01' W 005°22'412.8
2017-Nov-18 12:30N 36°02' W 005°17'  
2017-Nov-15 12:45N 36°39' E 013°48'412.9
2017-Nov-15 12:29N 36°38' E 013°52'612.8
2017-Nov-15 12:00N 36°36' E 013°59'712.9
2017-Nov-15 11:30N 36°34' E 014°07'812.7
2017-Nov-15 10:54N 36°31' E 014°16'512.5
2017-Nov-15 10:30N 36°30' E 014°22'612.4
2017-Nov-15 10:00N 36°27' E 014°29'612.2
2017-Nov-15 09:29N 36°26' E 014°37'  
2017-Nov-09 12:14N 45°06' E 036°37'  

Dump ship's entire track history